sensor_id;sensor_type;location;lat;lon;timestamp;pressure;altitude;pressure_sealevel;temperature;humidity
40490;BME280;26196;52.302;10.572;2023-02-14T00:01:55;102771.41;;;12.29;49.61
40490;BME280;26196;52.302;10.572;2023-02-14T00:06:30;102763.50;;;12.27;50.20
40490;BME280;26196;52.302;10.572;2023-02-14T00:10:31;102760.88;;;12.24;49.62
40490;BME280;26196;52.302;10.572;2023-02-14T00:14:32;102758.22;;;12.19;49.09
40490;BME280;26196;52.302;10.572;2023-02-14T00:19:07;102760.00;;;12.19;49.21
40490;BME280;26196;52.302;10.572;2023-02-14T00:23:08;102759.97;;;12.14;49.56
40490;BME280;26196;52.302;10.572;2023-02-14T00:27:08;102754.72;;;12.10;49.69
40490;BME280;26196;52.302;10.572;2023-02-14T00:31:08;102759.97;;;12.05;49.94
40490;BME280;26196;52.302;10.572;2023-02-14T00:35:09;102748.56;;;12.00;49.94
40490;BME280;26196;52.302;10.572;2023-02-14T00:39:11;102762.59;;;12.02;49.68
40490;BME280;26196;52.302;10.572;2023-02-14T00:43:12;102752.97;;;11.99;49.91
40490;BME280;26196;52.302;10.572;2023-02-14T00:47:46;102755.56;;;11.98;49.48
40490;BME280;26196;52.302;10.572;2023-02-14T00:51:46;102762.56;;;11.94;49.36
40490;BME280;26196;52.302;10.572;2023-02-14T00:55:47;102765.16;;;11.87;49.50
40490;BME280;26196;52.302;10.572;2023-02-14T01:00:24;102765.16;;;11.91;49.26
40490;BME280;26196;52.302;10.572;2023-02-14T01:04:24;102768.59;;;11.86;49.42
40490;BME280;26196;52.302;10.572;2023-02-14T01:08:25;102758.97;;;11.81;50.11
40490;BME280;26196;52.302;10.572;2023-02-14T01:12:59;102758.97;;;11.78;49.51
40490;BME280;26196;52.302;10.572;2023-02-14T01:17:00;102740.56;;;11.72;49.66
40490;BME280;26196;52.302;10.572;2023-02-14T01:25:17;102747.56;;;11.69;49.59
40490;BME280;26196;52.302;10.572;2023-02-14T01:29:17;102751.06;;;11.69;49.61
40490;BME280;26196;52.302;10.572;2023-02-14T01:33:17;102739.66;;;11.64;49.69
40490;BME280;26196;52.302;10.572;2023-02-14T01:37:18;102749.28;;;11.65;49.66
40490;BME280;26196;52.302;10.572;2023-02-14T01:41:19;102744.91;;;11.58;49.68
40490;BME280;26196;52.302;10.572;2023-02-14T01:45:21;102746.66;;;11.57;49.05
40490;BME280;26196;52.302;10.572;2023-02-14T01:49:57;102750.16;;;11.58;49.98
40490;BME280;26196;52.302;10.572;2023-02-14T01:53:59;102732.63;;;11.51;48.98
40490;BME280;26196;52.302;10.572;2023-02-14T01:58:04;102750.13;;;11.55;49.44
40490;BME280;26196;52.302;10.572;2023-02-14T02:02:06;102740.47;;;11.49;49.95
40490;BME280;26196;52.302;10.572;2023-02-14T02:10:44;102734.38;;;11.50;49.96
40490;BME280;26196;52.302;10.572;2023-02-14T02:14:45;102736.09;;;11.47;49.77
40490;BME280;26196;52.302;10.572;2023-02-14T02:53:53;102704.53;;;11.25;48.60
40490;BME280;26196;52.302;10.572;2023-02-14T02:58:24;102708.00;;;11.21;48.95
40490;BME280;26196;52.302;10.572;2023-02-14T03:02:32;102689.59;;;11.09;48.80
40490;BME280;26196;52.302;10.572;2023-02-14T03:06:53;102701.00;;;11.19;48.73
40490;BME280;26196;52.302;10.572;2023-02-14T03:10:55;102697.47;;;11.18;48.50
40490;BME280;26196;52.302;10.572;2023-02-14T03:23:31;102692.19;;;11.06;48.64
40490;BME280;26196;52.302;10.572;2023-02-14T03:27:45;102687.81;;;11.03;48.46
40490;BME280;26196;52.302;10.572;2023-02-14T03:36:03;102686.91;;;10.95;48.40
40490;BME280;26196;52.302;10.572;2023-02-14T03:40:17;102677.28;;;10.97;48.15
40490;BME280;26196;52.302;10.572;2023-02-14T03:44:44;102668.53;;;10.93;48.04
40490;BME280;26196;52.302;10.572;2023-02-14T03:48:49;102663.28;;;10.90;48.38
40490;BME280;26196;52.302;10.572;2023-02-14T03:52:51;102669.34;;;10.86;48.24
40490;BME280;26196;52.302;10.572;2023-02-14T03:57:18;102662.38;;;10.85;48.21
40490;BME280;26196;52.302;10.572;2023-02-14T04:01:24;102660.66;;;10.87;48.23
40490;BME280;26196;52.302;10.572;2023-02-14T04:05:56;102656.22;;;10.82;48.18
40490;BME280;26196;52.302;10.572;2023-02-14T04:09:57;102639.59;;;10.73;48.50
40490;BME280;26196;52.302;10.572;2023-02-14T04:13:57;102660.59;;;10.81;47.67
40490;BME280;26196;52.302;10.572;2023-02-14T04:18:35;102654.44;;;10.76;48.18
40490;BME280;26196;52.302;10.572;2023-02-14T04:22:54;102654.44;;;10.76;48.38
40490;BME280;26196;52.302;10.572;2023-02-14T04:26:55;102655.31;;;10.72;48.09
40490;BME280;26196;52.302;10.572;2023-02-14T04:31:10;102652.69;;;10.73;47.99
40490;BME280;26196;52.302;10.572;2023-02-14T04:40:07;102637.78;;;10.63;47.98
40490;BME280;26196;52.302;10.572;2023-02-14T04:44:42;102651.72;;;10.61;47.62
40490;BME280;26196;52.302;10.572;2023-02-14T04:49:16;102649.16;;;10.64;47.83
40490;BME280;26196;52.302;10.572;2023-02-14T04:53:54;102641.25;;;10.61;47.67
40490;BME280;26196;52.302;10.572;2023-02-14T04:58:31;102638.63;;;10.61;48.00
40490;BME280;26196;52.302;10.572;2023-02-14T05:02:32;102616.78;;;10.54;47.75
40490;BME280;26196;52.302;10.572;2023-02-14T05:07:06;102636.00;;;10.59;47.98
40490;BME280;26196;52.302;10.572;2023-02-14T05:11:44;102642.09;;;10.57;47.74
40490;BME280;26196;52.302;10.572;2023-02-14T05:15:44;102641.22;;;10.56;47.75
40490;BME280;26196;52.302;10.572;2023-02-14T05:20:19;102640.34;;;10.56;47.93
40490;BME280;26196;52.302;10.572;2023-02-14T05:24:53;102639.50;;;10.60;48.23
40490;BME280;26196;52.302;10.572;2023-02-14T05:28:54;102634.25;;;10.60;47.84
40490;BME280;26196;52.302;10.572;2023-02-14T05:42:08;102605.31;;;10.38;47.76
40490;BME280;26196;52.302;10.572;2023-02-14T05:46:42;102628.94;;;10.46;47.64
40490;BME280;26196;52.302;10.572;2023-02-14T05:50:43;102635.03;;;10.46;47.97
40490;BME280;26196;52.302;10.572;2023-02-14T05:54:44;102632.41;;;10.43;47.96
40490;BME280;26196;52.302;10.572;2023-02-14T05:58:44;102628.03;;;10.42;47.84
40490;BME280;26196;52.302;10.572;2023-02-14T06:03:22;102629.78;;;10.40;47.75
40490;BME280;26196;52.302;10.572;2023-02-14T06:07:56;102633.25;;;10.41;47.41
40490;BME280;26196;52.302;10.572;2023-02-14T06:11:57;102636.72;;;10.40;47.68
40490;BME280;26196;52.302;10.572;2023-02-14T06:16:32;102631.47;;;10.37;47.58
40490;BME280;26196;52.302;10.572;2023-02-14T06:20:32;102645.44;;;10.36;47.75
40490;BME280;26196;52.302;10.572;2023-02-14T06:24:33;102634.06;;;10.34;47.42
40490;BME280;26196;52.302;10.572;2023-02-14T06:29:10;102643.66;;;10.35;47.28
40490;BME280;26196;52.302;10.572;2023-02-14T06:33:10;102628.75;;;10.26;47.44
40490;BME280;26196;52.302;10.572;2023-02-14T06:37:11;102648.88;;;10.32;47.78
40490;BME280;26196;52.302;10.572;2023-02-14T06:41:48;102652.34;;;10.29;47.09
40490;BME280;26196;52.302;10.572;2023-02-14T06:45:49;102632.16;;;10.16;47.47
40490;BME280;26196;52.302;10.572;2023-02-14T06:49:49;102647.06;;;10.26;47.72
40490;BME280;26196;52.302;10.572;2023-02-14T06:54:26;102651.47;;;10.28;47.27
40490;BME280;26196;52.302;10.572;2023-02-14T06:58:26;102652.28;;;10.26;47.35
40490;BME280;26196;52.302;10.572;2023-02-14T07:02:27;102647.00;;;10.21;47.58
40490;BME280;26196;52.302;10.572;2023-02-14T07:06:27;102652.28;;;10.23;47.44
40490;BME280;26196;52.302;10.572;2023-02-14T07:10:27;102628.63;;;10.09;47.37
40490;BME280;26196;52.302;10.572;2023-02-14T07:14:28;102638.25;;;10.16;47.62
40490;BME280;26196;52.302;10.572;2023-02-14T07:18:28;102653.97;;;10.18;47.67
40490;BME280;26196;52.302;10.572;2023-02-14T07:23:05;102657.47;;;10.18;47.45
40490;BME280;26196;52.302;10.572;2023-02-14T07:27:05;102655.72;;;10.19;47.79
40490;BME280;26196;52.302;10.572;2023-02-14T07:31:06;102656.66;;;10.22;47.42
40490;BME280;26196;52.302;10.572;2023-02-14T07:35:43;102658.38;;;10.20;47.65
40490;BME280;26196;52.302;10.572;2023-02-14T07:39:44;102647.81;;;10.10;47.93
40490;BME280;26196;52.302;10.572;2023-02-14T07:43:44;102659.22;;;10.21;47.10
40490;BME280;26196;52.302;10.572;2023-02-14T07:47:47;102651.34;;;10.15;47.71
40490;BME280;26196;52.302;10.572;2023-02-14T07:51:48;102652.22;;;10.18;47.45
40490;BME280;26196;52.302;10.572;2023-02-14T07:55:50;102646.09;;;10.15;47.88
40490;BME280;26196;52.302;10.572;2023-02-14T07:59:51;102646.94;;;10.11;47.83
40490;BME280;26196;52.302;10.572;2023-02-14T08:03:51;102640.84;;;10.12;48.21
40490;BME280;26196;52.302;10.572;2023-02-14T08:13:03;102636.81;;;10.49;48.33
40490;BME280;26196;52.302;10.572;2023-02-14T08:17:40;102638.59;;;10.58;48.94
40490;BME280;26196;52.302;10.572;2023-02-14T08:22:17;102634.28;;;10.66;48.81
40490;BME280;26196;52.302;10.572;2023-02-14T08:26:52;102635.19;;;10.71;48.88
40490;BME280;26196;52.302;10.572;2023-02-14T08:30:53;102627.34;;;10.71;49.08
40490;BME280;26196;52.302;10.572;2023-02-14T08:35:27;102637.88;;;10.79;48.81
40490;BME280;26196;52.302;10.572;2023-02-14T08:39:27;102621.25;;;10.72;48.80
40490;BME280;26196;52.302;10.572;2023-02-14T08:44:02;102632.69;;;10.85;49.02
40490;BME280;26196;52.302;10.572;2023-02-14T08:48:37;102636.19;;;10.85;48.41
40490;BME280;26196;52.302;10.572;2023-02-14T08:52:42;102642.22;;;10.75;48.76
40490;BME280;26196;52.302;10.572;2023-02-14T08:57:16;102636.06;;;10.70;48.54
40490;BME280;26196;52.302;10.572;2023-02-14T09:01:17;102629.03;;;10.63;48.56
40490;BME280;26196;52.302;10.572;2023-02-14T09:05:52;102640.44;;;10.68;48.28
40490;BME280;26196;52.302;10.572;2023-02-14T09:09:52;102641.31;;;10.67;48.12
40490;BME280;26196;52.302;10.572;2023-02-14T09:14:33;102638.66;;;10.64;48.00
40490;BME280;26196;52.302;10.572;2023-02-14T09:19:04;102645.66;;;10.65;48.19
40490;BME280;26196;52.302;10.572;2023-02-14T09:23:41;102637.78;;;10.62;48.44
40490;BME280;26196;52.302;10.572;2023-02-14T09:27:41;102636.06;;;10.64;48.30
40490;BME280;26196;52.302;10.572;2023-02-14T09:32:16;102630.78;;;10.62;48.30
40490;BME280;26196;52.302;10.572;2023-02-14T09:36:17;102628.16;;;10.62;48.00
40490;BME280;26196;52.302;10.572;2023-02-14T09:40:36;102631.66;;;10.61;48.72
40490;BME280;26196;52.302;10.572;2023-02-14T09:45:14;102625.53;;;10.61;48.61
40490;BME280;26196;52.302;10.572;2023-02-14T09:49:50;102630.75;;;10.61;48.56
40490;BME280;26196;52.302;10.572;2023-02-14T09:54:03;102620.25;;;10.55;48.84
40490;BME280;26196;52.302;10.572;2023-02-14T09:58:34;102632.53;;;10.59;48.65
40490;BME280;26196;52.302;10.572;2023-02-14T10:11:27;102625.50;;;10.58;49.08
40490;BME280;26196;52.302;10.572;2023-02-14T10:16:10;102623.78;;;10.57;49.07
40490;BME280;26196;52.302;10.572;2023-02-14T10:20:31;102622.91;;;10.58;48.75
40490;BME280;26196;52.302;10.572;2023-02-14T10:24:44;102627.28;;;10.59;48.87
40490;BME280;26196;52.302;10.572;2023-02-14T10:28:48;102610.66;;;10.54;49.11
40490;BME280;26196;52.302;10.572;2023-02-14T10:33:00;102599.28;;;10.48;48.89
40490;BME280;26196;52.302;10.572;2023-02-14T10:42:11;102621.16;;;10.57;49.78
40490;BME280;26196;52.302;10.572;2023-02-14T10:51:09;102616.81;;;10.60;49.65
40490;BME280;26196;52.302;10.572;2023-02-14T10:55:25;102601.97;;;10.56;50.01
40490;BME280;26196;52.302;10.572;2023-02-14T11:03:57;102593.22;;;10.54;49.78
40490;BME280;26196;52.302;10.572;2023-02-14T11:08:25;102597.63;;;10.63;49.76
40490;BME280;26196;52.302;10.572;2023-02-14T11:12:56;102598.47;;;10.63;50.20
40490;BME280;26196;52.302;10.572;2023-02-14T11:16:58;102595.03;;;10.64;50.32
40490;BME280;26196;52.302;10.572;2023-02-14T11:21:03;102598.50;;;10.65;50.61
40490;BME280;26196;52.302;10.572;2023-02-14T11:25:29;102587.16;;;10.66;50.81
40490;BME280;26196;52.302;10.572;2023-02-14T11:33:42;102578.44;;;10.67;50.72
40490;BME280;26196;52.302;10.572;2023-02-14T11:42:47;102564.47;;;10.71;51.53
40490;BME280;26196;52.302;10.572;2023-02-14T11:47:17;102560.16;;;10.71;51.42
40490;BME280;26196;52.302;10.572;2023-02-14T11:51:17;102543.56;;;10.74;51.36
40490;BME280;26196;52.302;10.572;2023-02-14T11:55:36;102524.28;;;10.66;51.50
40490;BME280;26196;52.302;10.572;2023-02-14T11:59:55;102541.81;;;10.76;51.60
40490;BME280;26196;52.302;10.572;2023-02-14T12:03:59;102532.22;;;10.78;51.41
40490;BME280;26196;52.302;10.572;2023-02-14T12:08:32;102526.13;;;10.81;51.87
40490;BME280;26196;52.302;10.572;2023-02-14T12:12:36;102523.50;;;10.82;52.16
40490;BME280;26196;52.302;10.572;2023-02-14T12:21:40;102513.94;;;10.87;52.24
40490;BME280;26196;52.302;10.572;2023-02-14T12:26:13;102517.41;;;10.88;52.37
40490;BME280;26196;52.302;10.572;2023-02-14T12:30:22;102501.69;;;10.83;52.55
40490;BME280;26196;52.302;10.572;2023-02-14T12:34:23;102510.44;;;10.94;52.62
40490;BME280;26196;52.302;10.572;2023-02-14T12:38:34;102494.75;;;10.98;52.89
40490;BME280;26196;52.302;10.572;2023-02-14T12:46:53;102483.38;;;11.02;52.86
40490;BME280;26196;52.302;10.572;2023-02-14T12:51:21;102478.16;;;11.03;53.03
40490;BME280;26196;52.302;10.572;2023-02-14T13:00:03;102471.19;;;11.08;53.68
40490;BME280;26196;52.302;10.572;2023-02-14T13:18:22;102459.84;;;11.20;53.65
40490;BME280;26196;52.302;10.572;2023-02-14T13:22:20;102450.25;;;11.24;54.09
40490;BME280;26196;52.302;10.572;2023-02-14T13:26:31;102447.63;;;11.27;54.16
40490;BME280;26196;52.302;10.572;2023-02-14T13:30:34;102442.38;;;11.28;54.46
40490;BME280;26196;52.302;10.572;2023-02-14T13:35:14;102430.16;;;11.32;54.51
40490;BME280;26196;52.302;10.572;2023-02-14T13:39:53;102421.41;;;11.34;55.15
40490;BME280;26196;52.302;10.572;2023-02-14T13:43:55;102427.53;;;11.38;54.75
40490;BME280;26196;52.302;10.572;2023-02-14T13:48:30;102420.53;;;11.40;55.29
40490;BME280;26196;52.302;10.572;2023-02-14T13:52:57;102414.44;;;11.43;55.24
40490;BME280;26196;52.302;10.572;2023-02-14T13:56:58;102415.31;;;11.45;55.46
40490;BME280;26196;52.302;10.572;2023-02-14T14:06:15;102418.81;;;11.50;55.93
40490;BME280;26196;52.302;10.572;2023-02-14T14:10:41;102416.16;;;11.53;55.90
40490;BME280;26196;52.302;10.572;2023-02-14T14:14:41;102410.94;;;11.57;55.77
40490;BME280;26196;52.302;10.572;2023-02-14T14:18:42;102409.19;;;11.58;57.15
40490;BME280;26196;52.302;10.572;2023-02-14T14:22:47;102401.31;;;11.55;57.35
40490;BME280;26196;52.302;10.572;2023-02-14T14:31:22;102403.91;;;11.64;57.63
40490;BME280;26196;52.302;10.572;2023-02-14T14:40:03;102396.91;;;11.71;57.45
40490;BME280;26196;52.302;10.572;2023-02-14T14:44:33;102395.16;;;11.71;57.37
40490;BME280;26196;52.302;10.572;2023-02-14T14:49:08;102399.53;;;11.74;58.05
40490;BME280;26196;52.302;10.572;2023-02-14T14:53:20;102400.38;;;11.77;57.00
40490;BME280;26196;52.302;10.572;2023-02-14T15:01:47;102393.38;;;11.78;57.95
40490;BME280;26196;52.302;10.572;2023-02-14T15:06:22;102390.78;;;11.81;57.79
40490;BME280;26196;52.302;10.572;2023-02-14T15:10:26;102392.50;;;11.85;57.74
40490;BME280;26196;52.302;10.572;2023-02-14T15:14:58;102391.63;;;11.85;57.84
40490;BME280;26196;52.302;10.572;2023-02-14T15:23:37;102363.66;;;11.77;57.48
40490;BME280;26196;52.302;10.572;2023-02-14T15:32:52;102363.66;;;11.91;57.41
40490;BME280;26196;52.302;10.572;2023-02-14T15:37:27;102363.66;;;11.93;56.97
40490;BME280;26196;52.302;10.572;2023-02-14T15:41:28;102352.28;;;11.86;56.88
40490;BME280;26196;52.302;10.572;2023-02-14T15:45:48;102364.50;;;11.96;57.53
40490;BME280;26196;52.302;10.572;2023-02-14T15:49:50;102359.25;;;11.98;57.22
40490;BME280;26196;52.302;10.572;2023-02-14T15:53:56;102361.00;;;11.99;57.34
40490;BME280;26196;52.302;10.572;2023-02-14T15:58:18;102345.25;;;11.96;56.97
40490;BME280;26196;52.302;10.572;2023-02-14T16:02:31;102345.25;;;12.00;56.61
40490;BME280;26196;52.302;10.572;2023-02-14T16:07:14;102350.50;;;12.02;57.02
40490;BME280;26196;52.302;10.572;2023-02-14T16:11:28;102355.75;;;12.03;57.07
40490;BME280;26196;52.302;10.572;2023-02-14T16:16:04;102356.63;;;12.06;56.90
40490;BME280;26196;52.302;10.572;2023-02-14T16:20:28;102354.84;;;12.06;56.77
40490;BME280;26196;52.302;10.572;2023-02-14T16:25:03;102352.22;;;12.06;56.97
40490;BME280;26196;52.302;10.572;2023-02-14T16:33:41;102344.34;;;12.09;56.85
40490;BME280;26196;52.302;10.572;2023-02-14T16:38:16;102349.59;;;12.12;56.65
40490;BME280;26196;52.302;10.572;2023-02-14T16:42:17;102334.75;;;12.05;56.19
40490;BME280;26196;52.302;10.572;2023-02-14T16:46:52;102342.59;;;12.13;56.12
40490;BME280;26196;52.302;10.572;2023-02-14T16:51:27;102338.19;;;12.16;56.22
40490;BME280;26196;52.302;10.572;2023-02-14T16:56:02;102332.94;;;12.16;56.43
40490;BME280;26196;52.302;10.572;2023-02-14T17:00:38;102328.59;;;12.15;56.13
40490;BME280;26196;52.302;10.572;2023-02-14T17:05:16;102320.69;;;12.17;56.37
40490;BME280;26196;52.302;10.572;2023-02-14T17:09:54;102337.31;;;12.19;56.13
40490;BME280;26196;52.302;10.572;2023-02-14T17:13:57;102332.94;;;12.21;55.84
40490;BME280;26196;52.302;10.572;2023-02-14T17:18:34;102331.16;;;12.21;55.97
40490;BME280;26196;52.302;10.572;2023-02-14T17:22:35;102323.31;;;12.18;55.98
40490;BME280;26196;52.302;10.572;2023-02-14T17:27:10;102318.03;;;12.21;55.73
40490;BME280;26196;52.302;10.572;2023-02-14T17:31:10;102316.28;;;12.22;55.84
40490;BME280;26196;52.302;10.572;2023-02-14T17:35:45;102311.03;;;12.22;55.84
40490;BME280;26196;52.302;10.572;2023-02-14T17:39:46;102312.78;;;12.21;55.79
40490;BME280;26196;52.302;10.572;2023-02-14T17:44:23;102305.75;;;12.26;55.34
40490;BME280;26196;52.302;10.572;2023-02-14T17:48:24;102307.50;;;12.27;55.45
40490;BME280;26196;52.302;10.572;2023-02-14T17:52:24;102310.13;;;12.27;55.57
40490;BME280;26196;52.302;10.572;2023-02-14T17:56:58;102299.63;;;12.31;54.80
40490;BME280;26196;52.302;10.572;2023-02-14T18:01:09;102293.50;;;12.29;55.02
40490;BME280;26196;52.302;10.572;2023-02-14T18:05:10;102228.94;;;11.91;55.16
40490;BME280;26196;52.302;10.572;2023-02-14T18:09:45;102294.38;;;12.29;55.08
40490;BME280;26196;52.302;10.572;2023-02-14T18:13:46;102285.59;;;12.30;55.08
40490;BME280;26196;52.302;10.572;2023-02-14T18:18:20;102283.88;;;12.27;54.76
40490;BME280;26196;52.302;10.572;2023-02-14T18:22:21;102279.53;;;12.22;54.65
40490;BME280;26196;52.302;10.572;2023-02-14T18:26:55;102291.75;;;12.27;54.62
40490;BME280;26196;52.302;10.572;2023-02-14T18:31:33;102289.13;;;12.31;54.02
40490;BME280;26196;52.302;10.572;2023-02-14T18:40:24;102277.75;;;12.29;53.84
40490;BME280;26196;52.302;10.572;2023-02-14T18:44:44;102279.50;;;12.25;53.72
40490;BME280;26196;52.302;10.572;2023-02-14T18:48:44;102274.28;;;12.23;53.71
40490;BME280;26196;52.302;10.572;2023-02-14T18:52:45;102275.16;;;12.21;53.72
40490;BME280;26196;52.302;10.572;2023-02-14T18:56:45;102271.66;;;12.17;53.29
40490;BME280;26196;52.302;10.572;2023-02-14T19:01:21;102264.69;;;12.15;52.99
40490;BME280;26196;52.302;10.572;2023-02-14T19:05:57;102281.31;;;12.15;52.69
40490;BME280;26196;52.302;10.572;2023-02-14T19:10:32;102276.06;;;12.14;52.63
40490;BME280;26196;52.302;10.572;2023-02-14T19:14:34;102280.44;;;12.15;53.03
40490;BME280;26196;52.302;10.572;2023-02-14T19:19:09;102276.09;;;12.12;53.08
40490;BME280;26196;52.302;10.572;2023-02-14T19:23:46;102267.34;;;12.09;52.31
40490;BME280;26196;52.302;10.572;2023-02-14T19:28:21;102269.13;;;12.05;52.24
40490;BME280;26196;52.302;10.572;2023-02-14T19:32:21;102254.25;;;12.06;52.01
40490;BME280;26196;52.302;10.572;2023-02-14T19:36:22;102241.16;;;11.96;52.32
40490;BME280;26196;52.302;10.572;2023-02-14T19:40:23;102230.72;;;11.92;51.94
40490;BME280;26196;52.302;10.572;2023-02-14T19:44:41;102252.53;;;12.00;51.86
40490;BME280;26196;52.302;10.572;2023-02-14T19:48:42;102243.78;;;11.99;51.72
40490;BME280;26196;52.302;10.572;2023-02-14T19:52:43;102239.41;;;11.98;51.60
40490;BME280;26196;52.302;10.572;2023-02-14T19:56:45;102242.94;;;11.97;51.46
40490;BME280;26196;52.302;10.572;2023-02-14T20:00:52;102243.81;;;11.95;51.10
40490;BME280;26196;52.302;10.572;2023-02-14T20:05:21;102241.22;;;11.92;51.21
40490;BME280;26196;52.302;10.572;2023-02-14T20:09:22;102217.63;;;11.79;50.90
40490;BME280;26196;52.302;10.572;2023-02-14T20:13:58;102228.94;;;11.91;50.55
40490;BME280;26196;52.302;10.572;2023-02-14T20:17:59;102215.84;;;11.86;51.01
40490;BME280;26196;52.302;10.572;2023-02-14T20:22:36;102204.47;;;11.89;51.22
40490;BME280;26196;52.302;10.572;2023-02-14T20:27:13;102206.25;;;11.87;51.00
40490;BME280;26196;52.302;10.572;2023-02-14T20:31:15;102205.34;;;11.86;50.93
40490;BME280;26196;52.302;10.572;2023-02-14T20:40:26;102194.88;;;11.81;50.60
40490;BME280;26196;52.302;10.572;2023-02-14T20:45:01;102192.25;;;11.81;50.41
40490;BME280;26196;52.302;10.572;2023-02-14T20:49:36;102189.59;;;11.83;50.42
40490;BME280;26196;52.302;10.572;2023-02-14T20:54:14;102190.50;;;11.87;50.14
40490;BME280;26196;52.302;10.572;2023-02-14T20:58:48;102185.25;;;11.83;50.01
40490;BME280;26196;52.302;10.572;2023-02-14T21:03:23;102181.75;;;11.86;49.82
40490;BME280;26196;52.302;10.572;2023-02-14T21:08:00;102177.38;;;11.83;49.50
40490;BME280;26196;52.302;10.572;2023-02-14T21:16:38;102171.28;;;11.75;49.76
40490;BME280;26196;52.302;10.572;2023-02-14T21:25:50;102166.94;;;11.76;49.15
40490;BME280;26196;52.302;10.572;2023-02-14T21:29:51;102159.03;;;11.77;49.09
40490;BME280;26196;52.302;10.572;2023-02-14T21:33:53;102171.25;;;11.80;49.11
40490;BME280;26196;52.302;10.572;2023-02-14T21:37:53;102171.28;;;11.72;48.84
40490;BME280;26196;52.302;10.572;2023-02-14T21:41:54;102171.31;;;11.69;48.86
40490;BME280;26196;52.302;10.572;2023-02-14T21:45:55;102155.63;;;11.58;48.91
40490;BME280;26196;52.302;10.572;2023-02-14T21:49:56;102161.78;;;11.54;49.06
40490;BME280;26196;52.302;10.572;2023-02-14T21:54:16;102159.16;;;11.54;48.63
40490;BME280;26196;52.302;10.572;2023-02-14T21:58:51;102161.78;;;11.57;48.85
40490;BME280;26196;52.302;10.572;2023-02-14T22:02:52;102161.78;;;11.51;48.98
40490;BME280;26196;52.302;10.572;2023-02-14T22:06:52;102168.78;;;11.49;48.73
40490;BME280;26196;52.302;10.572;2023-02-14T22:11:29;102163.56;;;11.46;48.49
40490;BME280;26196;52.302;10.572;2023-02-14T22:15:30;102166.22;;;11.45;48.62
40490;BME280;26196;52.302;10.572;2023-02-14T22:19:30;102162.72;;;11.43;48.55
40490;BME280;26196;52.302;10.572;2023-02-14T22:23:32;102160.09;;;11.43;48.37
40490;BME280;26196;52.302;10.572;2023-02-14T22:28:06;102158.34;;;11.34;47.98
40490;BME280;26196;52.302;10.572;2023-02-14T22:32:07;102156.63;;;11.34;48.08
40490;BME280;26196;52.302;10.572;2023-02-14T22:36:08;102150.53;;;11.29;47.98
40490;BME280;26196;52.302;10.572;2023-02-14T22:40:09;102103.47;;;11.00;48.38
40490;BME280;26196;52.302;10.572;2023-02-14T22:44:46;102154.88;;;11.30;48.06
40490;BME280;26196;52.302;10.572;2023-02-14T22:48:48;102146.19;;;11.27;48.30
40490;BME280;26196;52.302;10.572;2023-02-14T22:52:49;102145.31;;;11.26;48.32
40490;BME280;26196;52.302;10.572;2023-02-14T22:56:49;102150.53;;;11.25;48.33
40490;BME280;26196;52.302;10.572;2023-02-14T23:00:52;102141.84;;;11.21;48.02
40490;BME280;26196;52.302;10.572;2023-02-14T23:04:52;102132.22;;;11.20;48.13
40490;BME280;26196;52.302;10.572;2023-02-14T23:08:53;102133.97;;;11.20;47.91
40490;BME280;26196;52.302;10.572;2023-02-14T23:13:28;102139.22;;;11.16;47.82
40490;BME280;26196;52.302;10.572;2023-02-14T23:17:47;102128.75;;;11.12;47.66
40490;BME280;26196;52.302;10.572;2023-02-14T23:22:11;102136.63;;;11.13;47.58
40490;BME280;26196;52.302;10.572;2023-02-14T23:26:11;102138.38;;;11.07;47.74
40490;BME280;26196;52.302;10.572;2023-02-14T23:30:14;102132.25;;;11.05;47.92
40490;BME280;26196;52.302;10.572;2023-02-14T23:34:49;102125.28;;;11.02;47.68
40490;BME280;26196;52.302;10.572;2023-02-14T23:38:49;102113.09;;;10.93;47.67
40490;BME280;26196;52.302;10.572;2023-02-14T23:42:52;102126.16;;;10.97;47.48
40490;BME280;26196;52.302;10.572;2023-02-14T23:47:26;102121.81;;;10.95;47.41
40490;BME280;26196;52.302;10.572;2023-02-14T23:51:27;102115.69;;;10.93;47.43
40490;BME280;26196;52.302;10.572;2023-02-14T23:55:27;102113.97;;;10.89;47.19
40490;BME280;26196;52.302;10.572;2023-02-14T23:59:27;102113.97;;;10.89;46.87
